Oakwell Hall parkrun # 230 - 13/04/2019

PosparkrunnerTimeAge CatAge GradeGender PosClubNoteTotal Runs
1Matthew DUCKWORTH18:59SM30-3468.13 %M1Clayton-le-Moors HarriersNew PB!102Member of the parkrun 100 Club
2Samuel RICH19:07JM15-1771.67 %M2First Timer!47Member of the parkrun 10 Club
3Matthew SUTTON19:39VM40-4469.47 %M3PB stays at 00:19:12359Member of the parkrun 250 Club
4Richard KEYWORTH19:43SM30-3466.53 %M4Oakwell RunFitPB stays at 00:19:39195Member of the parkrun 100 Club
5Richard GLEGHORN20:07VM40-4468.85 %M5PB stays at 00:19:4860Member of the parkrun 50 Club
6Max METCALFE20:13JM15-1767.77 %M6Rothwell Harriers & ACPB stays at 00:20:02143Member of the parkrun 100 ClubMember of the parkrun v25 Club
7Lee GOODRIDGE20:24VM40-4468.46 %M7Oakwell RunFitNew PB!93Member of the parkrun 50 Club
8Mitchell BOOCOCK20:26JM15-1767.05 %M8Pudsey & Bramley ACNew PB!86Member of the parkrun 50 Club
9Unknown
10Richard PEEL20:56VM35-3964.25 %M10Oakwell RunFitPB stays at 00:19:46120Member of the parkrun 100 Club
11Anthony JACKSON20:58VM40-4465.10 %M11PB stays at 00:19:0235
12Nigel CROSSFIELD21:19VM50-5470.29 %M12Halifax Harriers & ACPB stays at 00:20:4541
13Paul BRENTLEY21:29VM40-4465.48 %M13New PB!21
14Chris NORRIS21:39VM60-6475.37 %M14#runforfunPB stays at 00:21:27160Member of the parkrun 100 ClubMember of the parkrun v25 Club
15Olly BROOKE21:41SM25-2959.49 %M15Oakwell RunFitPB stays at 00:20:4649
16Shaun WELLS21:55VM45-4965.17 %M16Oakwell RunFitPB stays at 00:21:16103Member of the parkrun 100 Club
17Chris GARNETT22:05SM30-3458.72 %M17New PB!193Member of the parkrun 100 Club
18Scott SMITH22:09VM45-4964.03 %M18PB stays at 00:21:5157Member of the parkrun 50 Club
19Carly MILLER22:16VW35-3967.59 %F1Oakwell RunFitPB stays at 00:21:36206Member of the parkrun 100 Club
20Keith BIRKHEAD22:22VM55-5969.90 %M19New PB!44
21Paul ATKINS22:35VM40-4460.44 %M20PB stays at 00:18:4720
22John HIRST22:49VM45-4964.13 %M21PB stays at 00:20:59219Member of the parkrun 100 Club
23Jason BATTYE22:50VM35-3959.34 %M22AcreStreetRunnersNew PB!182Member of the parkrun 100 Club
24David COOKE22:52VM40-4461.08 %M23New PB!53Member of the parkrun 50 Club
25Steven ALLEN22:53SM30-3457.03 %M24First Timer!35
26Christopher SHAW22:56SM30-3456.40 %M25First Timer!36
27Tracey GALLAGHER22:58VW35-3965.09 %F2Pudsey Pacers RCPB stays at 00:21:41124Member of the parkrun 100 Club
28Steven CARTER23:01VM55-5968.50 %M26Horsforth Fellandale ClubPB stays at 00:22:4884Member of the parkrun 50 Club
29Nate MORRIS23:23JM1069.92 %M27New PB!35Member of the parkrun 10 Club
30Unknown
31Timothy HAMMOND24:13VM45-4958.98 %M29Yorkshire Wolds RunnersFirst Timer!209Member of the parkrun 100 ClubMember of the parkrun v25 Club
32Wayne DOHERTY24:16VM35-3955.84 %M30New PB!34
33Steven BOOCOCK24:25VM50-5461.91 %M31Bramley BreezersPB stays at 00:22:3396Member of the parkrun 50 Club
34Arron CAMPLIN24:25VM35-3955.09 %M32New PB!6
35Andy BRADLEY24:26VM35-3954.64 %M33New PB!6
36Richard COOKE24:32VM45-4958.70 %M34PB stays at 00:24:1087Member of the parkrun 50 Club
37Jan KING24:34VM65-6969.54 %M35Stainland Lions RCPB stays at 00:24:08115Member of the parkrun 100 Club
38Darren CLARKE24:37VM35-3954.23 %M36First Timer!2
39Paul BURRIDGE24:39VM50-5461.33 %M37Yorkshire Wolds RunnersNew PB!74Member of the parkrun 50 Club
40Mick RYDER24:42VM45-4957.83 %M38PB stays at 00:23:2263Member of the parkrun 50 Club
41Steve LAFFEY24:57VM55-5962.66 %M39PB stays at 00:24:5215
42James WATTS25:00VM45-4956.73 %M40PB stays at 00:23:5869Member of the parkrun 50 Club
43Joseph MURRAY25:06JM1062.88 %M41Spenborough & District ACPB stays at 00:24:0652Member of the parkrun 50 Club
44Toby LEGOOD25:13JM1064.84 %M42Spenborough & District ACNew PB!21Member of the parkrun 10 Club
45Paul FOZARD25:14VM50-5458.92 %M43New PB!18
46Jonathan STOW25:16VM45-4956.13 %M44First Timer!1
47Unknown
48Matthew DYSON25:28VM40-4454.84 %M46Veteran Runners UKPB stays at 00:23:1599Member of the parkrun 50 Club
49Simon COPLAND25:29SM30-3450.88 %M47PB stays at 00:25:2998Member of the parkrun 50 Club
50Jason TURNER25:32VM40-4455.09 %M48New PB!9
51John WILDE25:34VM45-4956.32 %M49Oakwell RunFitPB stays at 00:25:23129Member of the parkrun 100 ClubMember of the parkrun v25 Club
52Stuart EAKIN25:37VM50-5459.47 %M50PB stays at 00:24:03151Member of the parkrun 100 Club
53Antony HILL25:41VM35-3951.65 %M51Dewsbury Road RunnersPB stays at 00:22:0835
54David SIMPSON25:44VM50-5458.74 %M52PB stays at 00:24:12279Member of the parkrun 250 Club
55Estelle WILLIAMS25:47JW11-1463.15 %F3Spenborough & District ACPB stays at 00:25:4018Member of the parkrun 10 Club
56Trevor LESTER25:50VM40-4454.45 %M53Farsley FlyersPB stays at 00:22:50110Member of the parkrun 100 Club
57Elliot SPRAGGON25:58JM1062.97 %M54PB stays at 00:25:5121Member of the parkrun 10 Club
58Mark Daniel SPRAGGON26:00VM45-4954.55 %M55Dewsbury Road RunnersPB stays at 00:20:1657Member of the parkrun 50 Club
59Unknown
60Jamie DOBSON26:01VM50-5457.59 %M57New PB!8
61Ruby LUCAS26:07JW1065.35 %F4New PB!12Member of the parkrun 10 Club
62Jamie LUCAS26:09VM40-4453.79 %M58PB stays at 00:21:5529
63James HULBERT26:10VM45-4954.20 %M59PB stays at 00:23:1967Member of the parkrun 50 Club
64Gareth MORRIS26:16VM35-3951.21 %M60Spenborough & District ACPB stays at 00:25:1340
65Julian FARRAR26:17VM60-6462.65 %M61Oakwell RunFitPB stays at 00:25:10228Member of the parkrun 100 ClubMember of the parkrun v25 Club
66Scott EAGLEN26:19SM30-3449.15 %M62New PB!8
67Peter BRADFORD26:23VM50-5457.30 %M63PB stays at 00:24:34137Member of the parkrun 100 Club
68Antony CARTER26:25VM50-5456.28 %M64PB stays at 00:26:1022
69Faye GRIST26:31SW30-3455.88 %F5Oakwell Running Bears.New PB!36
70Harry BRACKENRIDGE26:32JM15-1752.45 %M65Halifax Harriers & ACPB stays at 00:20:1436Member of the parkrun 10 Club
71Vinny REED26:35VM40-4452.10 %M66First Timer!1
72Adam GALLAGHER26:36VM35-3950.94 %M67Pudsey Pacers RCPB stays at 00:23:18220Member of the parkrun 100 ClubMember of the parkrun v25 Club
73Stephen CRAWSHAW26:42VM40-4452.68 %M68PB stays at 00:25:0390Member of the parkrun 50 Club
74Kathryn HAMMOND26:43VW40-4458.89 %F6Yorkshire Wolds RunnersFirst Timer!208Member of the parkrun 100 ClubMember of the parkrun v25 Club
75Adam THEAKSTON26:50VM35-3950.12 %M69Dewsbury Road RunnersPB stays at 00:20:23198Member of the parkrun 100 Club
76Glynn MORTIMER26:51VM50-5454.93 %M70Tingley RunFITPB stays at 00:24:19149Member of the parkrun 100 Club
77Mark AKED27:03VM45-4953.67 %M71First Timer!70Member of the parkrun 50 Club
78Lisa HOUSON27:05VW55-5965.97 %F7PB stays at 00:25:08159Member of the parkrun 100 Club
79Joanne LEGOOD27:06VW35-3955.84 %F8New PB!68Member of the parkrun 50 Club
80Paula WEBSTER27:09VW50-5461.76 %F9PB stays at 00:26:387
81Charlotte COOPER27:11SW20-2454.45 %F10PB stays at 00:27:0812
82Tracey BROWN27:14VW45-4959.49 %F11New PB!14
83Paul DOWNEY27:15VM40-4450.09 %M72New PB!23
84Lydia KISBY27:19SW30-3454.42 %F12Oakwell RunFitPB stays at 00:25:36104Member of the parkrun 100 Club
85Jodie KNOWLES27:21VW35-3954.66 %F13Northowram Pumas Running ClubPB stays at 00:26:1559Member of the parkrun 50 Club
86Nathan LONGFIELD27:32VM35-3947.88 %M73PB stays at 00:26:5411
87Mason GURNEY27:33SM25-2946.82 %M74PB stays at 00:25:042
88Unknown
89Alan HARDWICK27:35VM50-5453.90 %M76PB stays at 00:26:4111
90Emily SHARP27:40JW11-1458.86 %F14Spenborough & District ACNew PB!19Member of the parkrun 10 Club
91David BRACKENRIDGE27:46VM50-5454.44 %M77PB stays at 00:24:2936
92Cheryl FELLOWS27:46VW40-4455.82 %F15New PB!8
93Amy MARCH27:47JW15-1755.07 %F16PB stays at 00:26:3714Member of the parkrun 10 Club
94Sophie CARR27:48SW25-2953.24 %F17New PB!15
95Philip LYNCH27:52VM65-6961.90 %M78First Timer!187Member of the parkrun 100 Club
96Johanna DOWLE27:53VW40-4455.59 %F18Tri Tempo EastbournePB stays at 00:22:06166Member of the parkrun 100 Club
97Tom DOWLE27:54JM11-1454.84 %M79Bodyworks XTCFirst Timer!5
98Richard KAVANAGH27:56SM30-3446.72 %M80PB stays at 00:27:0181Member of the parkrun 50 Club
99Samantha THRESH28:07VW50-5460.34 %F19PB stays at 00:26:0276Member of the parkrun 50 Club
100David WEBSTER28:13VM50-5453.10 %M81PB stays at 00:26:239
101Mary LYNCH28:23VW65-6973.63 %F20First Timer!180Member of the parkrun 100 Club
102Alastair CLEPHAN28:29SM25-2945.29 %M82New PB!6
103Clare MURRAY28:32VW40-4454.73 %F21Spenborough & District ACPB stays at 00:26:0261Member of the parkrun 50 Club
104Joanne ADDISON28:48VW35-3952.78 %F22PB stays at 00:28:1039
105Danielle SANDISON28:56SW25-2951.15 %F23New PB!8
106Colin EVANS29:02VM70-7461.48 %M83PB stays at 00:29:006
107Sheila KERR29:08VW55-5963.84 %F24ParkrunnerPBFirst Timer!121Member of the parkrun 100 Club
108Gary PRITCHARD29:09VM45-4948.66 %M84PB stays at 00:26:2332
109Finlay HARRISON29:12JM11-1452.40 %M85PB stays at 00:26:3122Member of the parkrun 10 Club
110Darren ATTWOOD29:19VM45-4948.72 %M86PB stays at 00:27:0286Member of the parkrun 50 Club
111Luke SEWELL29:22VM35-3944.89 %M87PB stays at 00:25:3653Member of the parkrun 50 Club
112Lewis MURRAY29:26JM11-1450.51 %M88Pudsey & Bramley ACPB stays at 00:24:468
113Heather ELLIS29:32VW45-4955.42 %F25Dewsbury Road RunnersNew PB!184Member of the parkrun 100 ClubMember of the parkrun v25 Club
114Ruby LAWTON29:32JW11-1455.14 %F26Spenborough & District ACPB stays at 00:28:396
115Lindsey WINTER29:45VW40-4452.49 %F27PB stays at 00:26:3883Member of the parkrun 50 Club
116Lynda STARK29:54VW40-4452.23 %F28Tingley RunFITPB stays at 00:27:3632
117Chris DOUGLAS29:58VM35-3943.99 %M89PB stays at 00:28:3140
118Unknown
119Unknown
120Dennis PUNTER30:08VM60-6455.14 %M92Leeds City ACPB stays at 00:25:0593Member of the parkrun 50 Club
121Matthew ELLIS30:09VM50-5449.70 %M93First Timer!51Member of the parkrun 50 Club
122Sandra PICKLES30:23VW55-5960.39 %F29PB stays at 00:27:5280Member of the parkrun 50 Club
123Mark MILLER30:28VM35-3944.47 %M94New PB!8
124Stefan DUMITRU30:34JM11-1446.40 %M95PB stays at 00:27:183
125Sarah WHITE30:36VW35-3948.86 %F30New PB!27
126Mark SAWYER30:37VM55-5950.19 %M96Sweatshop Running CommunityPB stays at 00:28:10154Member of the parkrun 100 Club
127Sarah FISHER30:43VW35-3949.48 %F31PB stays at 00:29:499
128David HULL30:50VM70-7460.43 %M97PB stays at 00:29:38176Member of the parkrun 100 Club
129Lucas RHODES30:55SM18-1942.64 %M98New PB!4
130Michele HAINSWORTH30:57VW50-5456.97 %F32PB stays at 00:30:03130Member of the parkrun 100 Club
131Lizzie KENDRICK30:59SW25-2947.77 %F33First Timer!2
132James LEE30:59SM30-3442.12 %M99PB stays at 00:24:2814
133Penny NORTH31:01VW55-5959.97 %F34Oakwell RunFitPB stays at 00:27:44165Member of the parkrun 100 Club
134Vicky WILDE31:02VW40-4450.70 %F35Tingley RunFITPB stays at 00:28:04100Member of the parkrun 100 ClubMember of the parkrun v25 Club
135Connie ATTWOOD31:03JW11-1450.62 %F36PB stays at 00:28:5288Member of the parkrun 50 Club
136Cole THOMAS31:04SM18-1942.92 %M100PB stays at 00:29:1310
137Shanice GORNALL31:05SW20-2447.61 %F37First Timer!18
138Catherine ABEL31:15VW35-3948.43 %F38PB stays at 00:27:18176Member of the parkrun 100 Club
139Peter BLANCHFIELD31:16VM55-5950.43 %M101PB stays at 00:29:47100Member of the parkrun 100 Club
140Robin CROFT31:19VM40-4443.59 %M102PB stays at 00:30:305
141Glyn EAGLEN31:26VM55-5950.58 %M103New PB!9
142Peter KEARSLEY31:28VM60-6450.95 %M104First Timer!64Member of the parkrun 50 Club
143Unknown
144Nicola COOKE31:32VW40-4448.78 %F39PB stays at 00:31:2050Member of the parkrun 50 Club
145Katie HALSTEAD31:33SW30-3447.12 %F40New PB!14
146Unknown
147Rob HALEY31:39VM40-4444.44 %M107PB stays at 00:30:0215
148Paul LAMONT31:45VM55-5948.82 %M108Yorkshire Hash House HarriersPB stays at 00:30:2249
149Christine FORSYTHE31:48VW50-5453.35 %F41PB stays at 00:31:365
150Kevin DAVIES31:52VM40-4443.15 %M109First Timer!1
151Skye BELLHOUSE31:57SW20-2446.32 %F42Oakwell Running Bears.New PB!9
152Patricia LYNCH32:19VW65-6964.67 %F43New PB!16
153Yvonne SPIVEY32:22VW45-4950.57 %F44PB stays at 00:28:04202Member of the parkrun 100 Club
154Unknown
155Unknown
156Ayub HUSSAIN32:41VM65-6951.81 %M112Dewsbury Road RunnersPB stays at 00:31:2724
157Polly MURPHY32:57JW15-1746.43 %F45PB stays at 00:31:3064Member of the parkrun 50 Club
158Emma ATKINS32:57VW40-4447.04 %F46PB stays at 00:31:0917
159Caroline MORRISSEY32:59VW50-5452.80 %F47PB stays at 00:32:1342
160Karl RIGBY33:06SM30-3439.07 %M113PB stays at 00:27:547
161Jack MANUEL33:07JM11-1442.83 %M114DofEPB stays at 00:29:3622Member of the parkrun 10 Club
162Nathan WARD33:10VM35-3940.55 %M115PB stays at 00:30:396
163Joshua WARD33:11JM1049.27 %M116PB stays at 00:30:396
164Louise BIRKENSHAW33:21VW35-3945.58 %F48New PB!3
165Sue GRAY33:29VW60-6460.53 %F49PB stays at 00:30:32118Member of the parkrun 100 ClubMember of the parkrun v25 Club
166Aissa TOURE33:30VW45-4947.41 %F50New PB!8
167Anne JORDAN33:47VW50-5452.20 %F51New PB!39
168Dawn LOCKWOOD-HALEY33:53VW40-4446.43 %F52PB stays at 00:30:4215
169Stephen EAGLEN33:55VM65-6951.40 %M117PB stays at 00:30:43110Member of the parkrun 100 ClubMember of the parkrun v25 Club
170Jackie WOLFSON33:59VW35-3944.73 %F53PB stays at 00:29:3226
171Unknown
172Hannah WIGLEY34:04SW30-3443.44 %F54PB stays at 00:31:309
173Shaun MURRAY34:06VM50-5443.94 %M119PB stays at 00:32:1645
174Daniel PUGH34:07VM40-4440.60 %M120New PB!2
175Kate RICHARDS34:13VW40-4444.72 %F55PB stays at 00:33:586
176Neil RICHARDS34:13VM40-4440.19 %M121PB stays at 00:22:4616
177Unknown
178Elizabeth SOURBUT34:18VW50-5451.41 %F56PB stays at 00:33:385
179Laura FAHY34:18SW25-2943.15 %F57Spenborough & District ACPB stays at 00:30:0820
180Jonathan KNOWLES34:19VM35-3938.66 %M123PB stays at 00:29:1736
181Michael STANLEY34:19SM30-3438.22 %M124PB stays at 00:25:0835
182Amy DOWLE34:21JW1051.09 %F58Bodyworks XTCFirst Timer!19Member of the parkrun 10 Club
183Sheila BEDFORD34:32VW65-6960.52 %F59PB stays at 00:31:4916
184Amanda O'REILLY34:36VW50-5450.34 %F60New PB!21
185David KEYTE34:37VM50-5444.01 %M125Oakwell Running Bears.PB stays at 00:28:5687Member of the parkrun 50 Club
186Jo MURPHY34:42VW45-4946.21 %F61Tingley RunFITPB stays at 00:34:20122Member of the parkrun 100 Club
187Beverley ORMONDROYD34:47VW45-4946.09 %F62Oakwell Running Bears.PB stays at 00:30:29132Member of the parkrun 100 Club
188Unknown
189Shelley OCONNOR34:50SW30-3442.78 %F63New PB!8
190Anita HEWITT34:59VW40-4443.74 %F64PB stays at 00:29:0890Member of the parkrun 50 Club
191Wendy HEWITT34:59VW35-3943.26 %F65Northowram Pumas Running ClubPB stays at 00:30:1959Member of the parkrun 50 Club
192Erin ATTWOOD35:03JW1048.69 %F66PB stays at 00:29:2878Member of the parkrun 50 Club
193Abby FELLOWS35:05JW1048.65 %F67PB stays at 00:33:5713Member of the parkrun 10 Club
194Matt FELLOWS35:06VM40-4439.17 %M127PB stays at 00:26:2415
195John BEAMAN35:17VM50-5441.80 %M128PB stays at 00:31:03125Member of the parkrun 100 Club
196Jodie DOUBLE35:19VW40-4444.22 %F68PB stays at 00:26:5556Member of the parkrun 50 Club
197Thomas WILDE35:27JM15-1739.26 %M129Tingley RunFITPB stays at 00:28:4980Member of the parkrun 50 Club
198Ashleigh SMITH35:49SW30-3441.32 %F69PB stays at 00:35:3860Member of the parkrun 50 Club
199Unknown
200Catherine ATTWOOD36:08VW40-4443.22 %F70PB stays at 00:32:4778Member of the parkrun 50 Club
201Unknown
202Matilda HARRISON36:51JW11-1442.65 %F71PB stays at 00:34:0021Member of the parkrun 10 Club
203Liz YORK36:54VW75-7965.72 %F72New PB!2
204Lucy HORNER37:16SW18-1939.85 %F73New PB!24
205Unknown
206Unknown
207Debra ROSE37:24VW55-5949.06 %F74New PB!12
208Martyn LEWIS37:25VM40-4436.48 %M134Oakwell RunFitPB stays at 00:24:2453Member of the parkrun 50 ClubMember of the parkrun v25 Club
209Terry SMITH37:26VM65-6944.79 %M135PB stays at 00:36:534
210Joanne BOOCOCK37:47VW50-5446.10 %F75Bramley BreezersPB stays at 00:35:0541
211Isobel BLACK37:59JW1047.70 %F76PB stays at 00:36:584
212Kaire ROSIN-BLACK38:00VW40-4440.48 %F77PB stays at 00:37:096
213Judy KIRKBY38:02VW70-7458.55 %F78PB stays at 00:30:32132Member of the parkrun 100 Club
214Catherine SENIOR38:03VW50-5444.59 %F79PB stays at 00:32:01113Member of the parkrun 100 Club
215Wayne LANGAN38:11SM30-3434.18 %M136First Timer!1
216Jessica BRADSHAW38:12SW25-2938.74 %F80First Timer!1
217Paul FOLEY38:16VM65-6944.25 %M137PB stays at 00:36:5810
218Beverley RYDER38:16VW40-4439.98 %F81PB stays at 00:36:1228
219Unknown
220Lisa STEAD38:39SW30-3438.34 %F82PB stays at 00:38:294
221Kasey HARTLEY38:40JW1044.14 %F83PB stays at 00:38:224
222Emma BROWN38:45SW30-3438.45 %F84PB stays at 00:35:375
223Julie MANUEL38:47VW50-5444.31 %F85Morley Running ClubNew PB!15
224Charlotte PARKER38:49VW40-4439.63 %F86Oakwell Running Bears.PB stays at 00:36:36112Member of the parkrun 100 ClubMember of the parkrun v25 Club
225Mandy GISBOURNE38:49VW55-5946.63 %F87Brighouse Bumble BeesPB stays at 00:38:4529
226Gabriella QUEITSCH-MAITLAND39:09SW25-2937.80 %F88PB stays at 00:38:435
227Leanne MITCHELL39:10SW25-2937.79 %F89First Timer!1
228Jack MITCHELL39:10SM25-2932.94 %M139First Timer!1
229Jonathan MARSHALL39:31VM40-4434.80 %M140Oakwell RunFitPB stays at 00:30:3443
230Trevor BOLTON39:57VM65-6943.64 %M141PB stays at 00:39:2658Member of the parkrun 50 Club
231Samuel FORD40:04JM1040.81 %M142First Timer!1
232Lenka FORD40:04VW40-4438.19 %F90First Timer!1
233Amy O'CONNOR40:24SW25-2936.63 %F91Dewsbury Road RunnersPB stays at 00:33:5764Member of the parkrun 50 ClubMember of the parkrun v25 Club
234Matt DODDS40:25SM30-3432.00 %M143First Timer!1
235Gaynor WALKER42:15VW50-5440.67 %F92New PB!28
236Mia HEASLET42:16JW11-1437.18 %F93PB stays at 00:41:029
237David HEASLET42:17VM50-5435.16 %M144PB stays at 00:29:5111
238Tracy EAKIN43:01VW55-5941.53 %F94Spenborough & District ACPB stays at 00:27:2810
239Christine SYKES43:38VW60-6444.46 %F95PB stays at 00:40:0651Member of the parkrun 50 Club
240Unknown
241Keeley LITTLEWOOD45:01VW40-4434.69 %F96First Timer!1
242Molly MILLER45:47JW1040.99 %F97PB stays at 00:38:4815Member of the parkrun 10 Club
243Unknown
244Jayne TROUT46:00VW50-5436.88 %F98Tingley RunFITPB stays at 00:43:5845
245Alanya MYERS46:34JW1041.95 %F99First Timer!1
246Rebecca MYERS46:35VW35-3932.31 %F100First Timer!1
247Theodore WARD47:32JM1041.58 %M147First Timer!1
248Mary WARD47:33VW35-3931.97 %F101First Timer!1
249Abigail HARDY48:51SW18-1930.64 %F102PB stays at 00:43:1544Member of the parkrun 10 Club
250Charlie HEWITT48:54JM11-1429.65 %M148PB stays at 00:33:4468Member of the parkrun 50 Club
251George STANLEY49:00JM11-1430.34 %M149PB stays at 00:33:5647Member of the parkrun 10 Club
252Cason HAYNES49:09JM11-1431.13 %M150PB stays at 00:31:2634Member of the parkrun 10 Club
253Gillian KENNEDY58:58VW55-5930.70 %F103Tingley RunFITPB stays at 00:33:33116Member of the parkrun 100 ClubMember of the parkrun v25 Club
254Mandy BOOLE59:41VW55-5931.61 %F104Pudsey Pacers RCPB stays at 00:34:0298Member of the parkrun 50 ClubMember of the parkrun v25 Club
255Lindsay HAYNES1:00:30VW40-4425.29 %F105PB stays at 00:22:55133Member of the parkrun 100 Club
256Joanne OVERAL1:00:34VW45-4926.75 %F106Tingley RunFITPB stays at 00:39:0922

Thanks to the volunteers

We are very grateful to the volunteers who made this event happen: Michelle ASTON, Toni BEST, Ann BOGUE, Philip BOGUE, Chris BYRON, Samantha CALVERT, Jane CROMACK, Ian CROMACK, Andrew FISHER, Adam GALLAGHER, Chris GOODRIDGE, Megan GRINSILL, Josephine HARDY, Laura HARRISON, Sean HARRISON, Cason HAYNES, Lindsay HAYNES, Steve HEMINGWAY, Elaine JACKSON, Lynne METCALFE, Tom METCALFE, Mira MILEUSNIC, Dawn MORTON, Jody NELSON, Mason NELSON, Louise OVERAL, Joanne OVERAL, Natalie SAMPSON, Jason SAVILLE, Michelle SAVILLE, Liam SAVILLE, Danni STEADMAN, Amanda WALKER, Jack WILDE, Vicky WILDE, Thomas WILDE, Darren WILLIAMS

Why not get involved and volunteer?

What is this table?

This table shows the complete results for the specified week at this event. It is automatically shown when you navigate to the results page, but can also be reached by clicking on Latest Results, or by picking a specific week from the Event History table. If you bookmark the Latest Results page in your browser, the bookmark will always take you to the most up to date results table. If you bookmark a results page reached via the Event History table, the bookmark will then always take you to that specific week's results.

The columns

  • Pos - the runner's overall position in the run.
  • parkrunner - is the registered name of the athlete; clicking on the name takes you to that parkrunner's results page for this event.
  • Time - is the runner's recorded time - we record the overall time between the run director's start instruction and the runner crossing the finish line.
  • Age Cat - represents the age category of the runner on the day of the run; the first letter represents the major age categories (J)unior, (S)enior and (Veteran); the second letter represents gender (M)en and (W)omen; the remainder of the category represents a more specific age range. There are two further categories for wheel chair users; WWC and MWC represent Women and Men respectively. Clicking on the result category takes you to that age categories' historical record for this event.
  • Age Grade
  • - Gives an indication of how well the runner has done relative to their age and gender see the FAQ article for more information.
  • Gender - (M)ale or (F)emale
  • Gender Pos- Gender finish positions.
  • Club - Running club if registered.
  • Note - Note - Comments about PBs (Personal Bests).
  • Total Runs - Total number of runs across all parkruns, an indicator of membership of the various parkrun clubs, and their links with partner websites.

As with any of the results tables, the table can be sorted by any column by clicking on the column heading.